sensor_id;sensor_type;location;lat;lon;timestamp;temperature;humidity
47961;DHT22;33721;48.852;9.936;2023-11-19T00:02:19;7.40;99.90
47961;DHT22;33721;48.852;9.936;2023-11-19T00:04:44;7.40;99.90
47961;DHT22;33721;48.852;9.936;2023-11-19T00:07:10;7.40;99.90
47961;DHT22;33721;48.852;9.936;2023-11-19T00:09:38;7.50;99.90
47961;DHT22;33721;48.852;9.936;2023-11-19T00:12:06;7.60;99.90
47961;DHT22;33721;48.852;9.936;2023-11-19T00:14:32;7.60;99.90
47961;DHT22;33721;48.852;9.936;2023-11-19T00:16:57;7.60;99.90
47961;DHT22;33721;48.852;9.936;2023-11-19T00:19:23;7.70;99.90
47961;DHT22;33721;48.852;9.936;2023-11-19T00:21:48;7.70;99.90
47961;DHT22;33721;48.852;9.936;2023-11-19T00:24:14;7.80;99.90
47961;DHT22;33721;48.852;9.936;2023-11-19T00:26:43;7.90;99.90
47961;DHT22;33721;48.852;9.936;2023-11-19T00:29:10;7.90;99.90
47961;DHT22;33721;48.852;9.936;2023-11-19T00:31:36;8.00;99.90
47961;DHT22;33721;48.852;9.936;2023-11-19T00:34:02;8.00;99.90
47961;DHT22;33721;48.852;9.936;2023-11-19T00:36:28;8.10;99.90
47961;DHT22;33721;48.852;9.936;2023-11-19T00:38:54;8.00;99.90
47961;DHT22;33721;48.852;9.936;2023-11-19T00:41:20;8.10;99.90
47961;DHT22;33721;48.852;9.936;2023-11-19T00:43:45;8.10;99.90
47961;DHT22;33721;48.852;9.936;2023-11-19T00:46:11;8.10;99.90
47961;DHT22;33721;48.852;9.936;2023-11-19T00:48:37;8.10;99.90
47961;DHT22;33721;48.852;9.936;2023-11-19T00:51:03;8.10;99.90
47961;DHT22;33721;48.852;9.936;2023-11-19T00:53:32;8.10;99.90
47961;DHT22;33721;48.852;9.936;2023-11-19T00:55:59;8.10;99.90
47961;DHT22;33721;48.852;9.936;2023-11-19T00:58:25;8.10;99.90
47961;DHT22;33721;48.852;9.936;2023-11-19T01:00:51;8.10;99.90
47961;DHT22;33721;48.852;9.936;2023-11-19T01:03:16;8.10;99.90
47961;DHT22;33721;48.852;9.936;2023-11-19T01:05:42;8.10;99.90
47961;DHT22;33721;48.852;9.936;2023-11-19T01:08:08;8.10;99.90
47961;DHT22;33721;48.852;9.936;2023-11-19T01:10:36;8.20;99.90
47961;DHT22;33721;48.852;9.936;2023-11-19T01:13:02;8.20;99.90
47961;DHT22;33721;48.852;9.936;2023-11-19T01:15:31;8.20;99.90
47961;DHT22;33721;48.852;9.936;2023-11-19T01:17:57;8.30;99.90
47961;DHT22;33721;48.852;9.936;2023-11-19T01:20:22;8.30;99.90
47961;DHT22;33721;48.852;9.936;2023-11-19T01:22:49;8.30;99.90
47961;DHT22;33721;48.852;9.936;2023-11-19T01:25:15;8.40;99.90
47961;DHT22;33721;48.852;9.936;2023-11-19T01:27:41;8.40;99.90
47961;DHT22;33721;48.852;9.936;2023-11-19T01:30:07;8.40;99.90
47961;DHT22;33721;48.852;9.936;2023-11-19T01:32:35;8.30;99.90
47961;DHT22;33721;48.852;9.936;2023-11-19T01:35:03;8.30;99.90
47961;DHT22;33721;48.852;9.936;2023-11-19T01:37:29;8.40;99.90
47961;DHT22;33721;48.852;9.936;2023-11-19T01:39:55;8.40;99.90
47961;DHT22;33721;48.852;9.936;2023-11-19T01:42:20;8.40;99.90
47961;DHT22;33721;48.852;9.936;2023-11-19T01:44:59;8.40;99.90
47961;DHT22;33721;48.852;9.936;2023-11-19T01:47:26;8.50;99.90
47961;DHT22;33721;48.852;9.936;2023-11-19T01:49:53;8.50;99.90
47961;DHT22;33721;48.852;9.936;2023-11-19T01:52:20;8.50;99.90
47961;DHT22;33721;48.852;9.936;2023-11-19T01:54:46;8.50;99.90
47961;DHT22;33721;48.852;9.936;2023-11-19T01:57:13;8.50;99.90
47961;DHT22;33721;48.852;9.936;2023-11-19T01:59:39;8.50;99.90
47961;DHT22;33721;48.852;9.936;2023-11-19T02:02:06;8.50;99.90
47961;DHT22;33721;48.852;9.936;2023-11-19T02:04:32;8.50;99.90
47961;DHT22;33721;48.852;9.936;2023-11-19T02:06:58;8.60;99.90
47961;DHT22;33721;48.852;9.936;2023-11-19T02:09:24;8.60;99.90
47961;DHT22;33721;48.852;9.936;2023-11-19T02:11:50;8.60;99.90
47961;DHT22;33721;48.852;9.936;2023-11-19T02:14:17;8.60;99.90
47961;DHT22;33721;48.852;9.936;2023-11-19T02:16:43;8.60;99.90
47961;DHT22;33721;48.852;9.936;2023-11-19T02:19:09;8.70;99.90
47961;DHT22;33721;48.852;9.936;2023-11-19T02:21:36;8.70;99.90
47961;DHT22;33721;48.852;9.936;2023-11-19T02:24:06;8.70;99.90
47961;DHT22;33721;48.852;9.936;2023-11-19T02:26:44;8.70;99.90
47961;DHT22;33721;48.852;9.936;2023-11-19T02:29:12;8.80;99.90
47961;DHT22;33721;48.852;9.936;2023-11-19T02:31:38;8.90;99.90
47961;DHT22;33721;48.852;9.936;2023-11-19T02:34:04;8.90;99.90
47961;DHT22;33721;48.852;9.936;2023-11-19T02:36:31;8.90;99.90
47961;DHT22;33721;48.852;9.936;2023-11-19T02:38:58;8.90;99.90
47961;DHT22;33721;48.852;9.936;2023-11-19T02:41:23;8.90;99.90
47961;DHT22;33721;48.852;9.936;2023-11-19T02:43:49;9.00;99.90
47961;DHT22;33721;48.852;9.936;2023-11-19T02:46:15;9.00;99.90
47961;DHT22;33721;48.852;9.936;2023-11-19T02:48:43;9.00;99.90
47961;DHT22;33721;48.852;9.936;2023-11-19T02:51:10;9.00;99.90
47961;DHT22;33721;48.852;9.936;2023-11-19T02:53:35;9.00;99.90
47961;DHT22;33721;48.852;9.936;2023-11-19T02:56:03;9.00;99.90
47961;DHT22;33721;48.852;9.936;2023-11-19T02:58:37;9.10;99.90
47961;DHT22;33721;48.852;9.936;2023-11-19T03:01:03;9.10;99.90
47961;DHT22;33721;48.852;9.936;2023-11-19T03:03:38;9.10;99.90
47961;DHT22;33721;48.852;9.936;2023-11-19T03:06:06;9.10;99.90
47961;DHT22;33721;48.852;9.936;2023-11-19T03:08:34;9.10;99.90
47961;DHT22;33721;48.852;9.936;2023-11-19T03:11:00;9.10;99.90
47961;DHT22;33721;48.852;9.936;2023-11-19T03:13:26;9.10;99.90
47961;DHT22;33721;48.852;9.936;2023-11-19T03:15:52;9.10;99.90
47961;DHT22;33721;48.852;9.936;2023-11-19T03:18:19;9.00;99.90
47961;DHT22;33721;48.852;9.936;2023-11-19T03:20:46;9.00;99.90
47961;DHT22;33721;48.852;9.936;2023-11-19T03:23:12;9.10;99.90
47961;DHT22;33721;48.852;9.936;2023-11-19T03:25:38;9.00;99.90
47961;DHT22;33721;48.852;9.936;2023-11-19T03:28:04;9.00;99.90
47961;DHT22;33721;48.852;9.936;2023-11-19T03:30:30;9.10;99.90
47961;DHT22;33721;48.852;9.936;2023-11-19T03:32:56;9.10;99.90
47961;DHT22;33721;48.852;9.936;2023-11-19T03:35:23;9.10;99.90
47961;DHT22;33721;48.852;9.936;2023-11-19T03:37:49;9.10;99.90
47961;DHT22;33721;48.852;9.936;2023-11-19T03:40:14;9.10;99.90
47961;DHT22;33721;48.852;9.936;2023-11-19T03:42:40;9.10;99.90
47961;DHT22;33721;48.852;9.936;2023-11-19T03:45:09;9.10;99.90
47961;DHT22;33721;48.852;9.936;2023-11-19T03:47:35;9.10;99.90
47961;DHT22;33721;48.852;9.936;2023-11-19T03:50:01;9.10;99.90
47961;DHT22;33721;48.852;9.936;2023-11-19T03:52:28;9.10;99.90
47961;DHT22;33721;48.852;9.936;2023-11-19T03:54:54;9.10;99.90
47961;DHT22;33721;48.852;9.936;2023-11-19T03:57:24;9.00;99.90
47961;DHT22;33721;48.852;9.936;2023-11-19T03:59:49;9.00;99.90
47961;DHT22;33721;48.852;9.936;2023-11-19T04:02:15;9.00;99.90
47961;DHT22;33721;48.852;9.936;2023-11-19T04:04:41;9.00;99.90
47961;DHT22;33721;48.852;9.936;2023-11-19T04:07:07;9.00;99.90
47961;DHT22;33721;48.852;9.936;2023-11-19T04:09:33;9.00;99.90
47961;DHT22;33721;48.852;9.936;2023-11-19T04:11:59;9.00;99.90
47961;DHT22;33721;48.852;9.936;2023-11-19T04:14:26;9.00;99.90
47961;DHT22;33721;48.852;9.936;2023-11-19T04:16:52;9.00;99.90
47961;DHT22;33721;48.852;9.936;2023-11-19T04:19:18;9.00;99.90
47961;DHT22;33721;48.852;9.936;2023-11-19T04:21:44;9.00;99.90
47961;DHT22;33721;48.852;9.936;2023-11-19T04:24:10;9.00;99.90
47961;DHT22;33721;48.852;9.936;2023-11-19T04:26:45;9.00;99.90
47961;DHT22;33721;48.852;9.936;2023-11-19T04:29:12;9.00;99.90
47961;DHT22;33721;48.852;9.936;2023-11-19T04:31:38;9.00;99.90
47961;DHT22;33721;48.852;9.936;2023-11-19T04:34:05;9.10;99.90
47961;DHT22;33721;48.852;9.936;2023-11-19T04:36:32;9.10;99.90
47961;DHT22;33721;48.852;9.936;2023-11-19T04:38:59;9.20;99.90
47961;DHT22;33721;48.852;9.936;2023-11-19T04:41:25;9.20;99.90
47961;DHT22;33721;48.852;9.936;2023-11-19T04:43:53;9.20;99.90
47961;DHT22;33721;48.852;9.936;2023-11-19T04:46:19;9.30;99.90
47961;DHT22;33721;48.852;9.936;2023-11-19T04:48:44;9.20;99.90
47961;DHT22;33721;48.852;9.936;2023-11-19T04:51:10;9.30;99.90
47961;DHT22;33721;48.852;9.936;2023-11-19T04:53:36;9.30;99.90
47961;DHT22;33721;48.852;9.936;2023-11-19T04:56:07;9.30;99.90
47961;DHT22;33721;48.852;9.936;2023-11-19T04:58:33;9.30;99.90
47961;DHT22;33721;48.852;9.936;2023-11-19T05:00:59;9.40;99.90
47961;DHT22;33721;48.852;9.936;2023-11-19T05:03:24;9.40;99.90
47961;DHT22;33721;48.852;9.936;2023-11-19T05:05:50;9.40;99.90
47961;DHT22;33721;48.852;9.936;2023-11-19T05:08:16;9.40;99.90
47961;DHT22;33721;48.852;9.936;2023-11-19T05:10:41;9.50;99.90
47961;DHT22;33721;48.852;9.936;2023-11-19T05:13:07;9.50;99.90
47961;DHT22;33721;48.852;9.936;2023-11-19T05:15:32;9.50;99.90
47961;DHT22;33721;48.852;9.936;2023-11-19T05:17:58;9.50;99.90
47961;DHT22;33721;48.852;9.936;2023-11-19T05:20:24;9.50;99.90
47961;DHT22;33721;48.852;9.936;2023-11-19T05:22:50;9.60;99.90
47961;DHT22;33721;48.852;9.936;2023-11-19T05:25:17;9.50;99.90
47961;DHT22;33721;48.852;9.936;2023-11-19T05:27:42;9.60;99.90
47961;DHT22;33721;48.852;9.936;2023-11-19T05:30:08;9.60;99.90
47961;DHT22;33721;48.852;9.936;2023-11-19T05:32:36;9.60;99.90
47961;DHT22;33721;48.852;9.936;2023-11-19T05:35:01;9.70;99.90
47961;DHT22;33721;48.852;9.936;2023-11-19T05:37:27;9.70;99.90
47961;DHT22;33721;48.852;9.936;2023-11-19T05:39:53;9.70;99.90
47961;DHT22;33721;48.852;9.936;2023-11-19T05:42:18;9.70;99.90
47961;DHT22;33721;48.852;9.936;2023-11-19T05:44:44;9.80;99.90
47961;DHT22;33721;48.852;9.936;2023-11-19T05:47:10;9.80;99.90
47961;DHT22;33721;48.852;9.936;2023-11-19T05:49:35;9.80;99.90
47961;DHT22;33721;48.852;9.936;2023-11-19T05:52:01;9.80;99.90
47961;DHT22;33721;48.852;9.936;2023-11-19T05:54:28;9.90;99.90
47961;DHT22;33721;48.852;9.936;2023-11-19T05:56:54;9.90;99.90
47961;DHT22;33721;48.852;9.936;2023-11-19T05:59:20;10.00;99.90
47961;DHT22;33721;48.852;9.936;2023-11-19T06:01:48;10.00;99.90
47961;DHT22;33721;48.852;9.936;2023-11-19T06:04:13;10.00;99.90
47961;DHT22;33721;48.852;9.936;2023-11-19T06:06:39;10.10;99.90
47961;DHT22;33721;48.852;9.936;2023-11-19T06:09:06;10.00;99.90
47961;DHT22;33721;48.852;9.936;2023-11-19T06:11:35;10.10;99.90
47961;DHT22;33721;48.852;9.936;2023-11-19T06:14:01;10.10;99.90
47961;DHT22;33721;48.852;9.936;2023-11-19T06:16:27;10.10;99.90
47961;DHT22;33721;48.852;9.936;2023-11-19T06:18:53;10.10;99.90
47961;DHT22;33721;48.852;9.936;2023-11-19T06:21:19;10.10;99.90
47961;DHT22;33721;48.852;9.936;2023-11-19T06:23:44;10.10;99.90
47961;DHT22;33721;48.852;9.936;2023-11-19T06:26:10;10.20;99.90
47961;DHT22;33721;48.852;9.936;2023-11-19T06:28:36;10.30;99.90
47961;DHT22;33721;48.852;9.936;2023-11-19T06:31:02;10.30;99.90
47961;DHT22;33721;48.852;9.936;2023-11-19T06:33:28;10.30;99.90
47961;DHT22;33721;48.852;9.936;2023-11-19T06:35:54;10.40;99.90
47961;DHT22;33721;48.852;9.936;2023-11-19T06:38:20;10.40;99.90
47961;DHT22;33721;48.852;9.936;2023-11-19T06:40:46;10.40;99.90
47961;DHT22;33721;48.852;9.936;2023-11-19T06:43:11;10.40;99.90
47961;DHT22;33721;48.852;9.936;2023-11-19T06:45:37;10.40;99.90
47961;DHT22;33721;48.852;9.936;2023-11-19T06:48:03;10.40;99.90
47961;DHT22;33721;48.852;9.936;2023-11-19T06:50:29;10.40;99.90
47961;DHT22;33721;48.852;9.936;2023-11-19T06:52:55;10.50;99.90
47961;DHT22;33721;48.852;9.936;2023-11-19T06:55:21;10.50;99.90
47961;DHT22;33721;48.852;9.936;2023-11-19T06:57:46;10.60;99.90
47961;DHT22;33721;48.852;9.936;2023-11-19T07:00:12;10.60;99.90
47961;DHT22;33721;48.852;9.936;2023-11-19T07:02:38;10.60;99.90
47961;DHT22;33721;48.852;9.936;2023-11-19T07:05:05;10.60;99.90
47961;DHT22;33721;48.852;9.936;2023-11-19T07:07:31;10.60;99.90
47961;DHT22;33721;48.852;9.936;2023-11-19T07:09:58;10.60;99.90
47961;DHT22;33721;48.852;9.936;2023-11-19T07:12:24;10.70;99.90
47961;DHT22;33721;48.852;9.936;2023-11-19T07:14:52;10.60;99.90
47961;DHT22;33721;48.852;9.936;2023-11-19T07:17:18;10.60;99.90
47961;DHT22;33721;48.852;9.936;2023-11-19T07:19:46;10.70;99.90
47961;DHT22;33721;48.852;9.936;2023-11-19T07:22:11;10.70;99.90
47961;DHT22;33721;48.852;9.936;2023-11-19T07:24:39;10.70;99.90
47961;DHT22;33721;48.852;9.936;2023-11-19T07:27:07;10.70;99.90
47961;DHT22;33721;48.852;9.936;2023-11-19T07:29:34;10.80;99.90
47961;DHT22;33721;48.852;9.936;2023-11-19T07:32:00;10.80;99.90
47961;DHT22;33721;48.852;9.936;2023-11-19T07:34:27;10.80;99.90
47961;DHT22;33721;48.852;9.936;2023-11-19T07:36:54;10.90;99.90
47961;DHT22;33721;48.852;9.936;2023-11-19T07:39:22;10.90;99.90
47961;DHT22;33721;48.852;9.936;2023-11-19T07:41:48;10.90;99.90
47961;DHT22;33721;48.852;9.936;2023-11-19T07:44:14;10.80;99.90
47961;DHT22;33721;48.852;9.936;2023-11-19T07:46:40;10.90;99.90
47961;DHT22;33721;48.852;9.936;2023-11-19T07:49:07;10.90;99.90
47961;DHT22;33721;48.852;9.936;2023-11-19T07:51:33;10.90;99.90
47961;DHT22;33721;48.852;9.936;2023-11-19T07:53:58;10.90;99.90
47961;DHT22;33721;48.852;9.936;2023-11-19T07:56:24;10.90;99.90
47961;DHT22;33721;48.852;9.936;2023-11-19T07:58:50;10.90;99.90
47961;DHT22;33721;48.852;9.936;2023-11-19T08:01:16;10.90;99.90
47961;DHT22;33721;48.852;9.936;2023-11-19T08:03:41;10.90;99.90
47961;DHT22;33721;48.852;9.936;2023-11-19T08:06:07;11.00;99.90
47961;DHT22;33721;48.852;9.936;2023-11-19T08:08:33;11.00;99.90
47961;DHT22;33721;48.852;9.936;2023-11-19T08:11:00;11.00;99.90
47961;DHT22;33721;48.852;9.936;2023-11-19T08:13:25;11.00;99.90
47961;DHT22;33721;48.852;9.936;2023-11-19T08:15:51;11.10;99.90
47961;DHT22;33721;48.852;9.936;2023-11-19T08:18:17;11.10;99.90
47961;DHT22;33721;48.852;9.936;2023-11-19T08:20:44;11.10;99.90
47961;DHT22;33721;48.852;9.936;2023-11-19T08:23:10;11.20;99.90
47961;DHT22;33721;48.852;9.936;2023-11-19T08:25:35;11.20;99.90
47961;DHT22;33721;48.852;9.936;2023-11-19T08:28:02;11.20;99.90
47961;DHT22;33721;48.852;9.936;2023-11-19T08:30:29;11.20;99.90
47961;DHT22;33721;48.852;9.936;2023-11-19T08:32:55;11.30;99.90
47961;DHT22;33721;48.852;9.936;2023-11-19T08:35:20;11.30;99.90
47961;DHT22;33721;48.852;9.936;2023-11-19T08:37:46;11.30;99.90
47961;DHT22;33721;48.852;9.936;2023-11-19T08:40:12;11.40;99.90
47961;DHT22;33721;48.852;9.936;2023-11-19T08:42:41;11.40;99.90
47961;DHT22;33721;48.852;9.936;2023-11-19T08:45:07;11.40;99.90
47961;DHT22;33721;48.852;9.936;2023-11-19T08:47:35;11.40;99.90
47961;DHT22;33721;48.852;9.936;2023-11-19T08:50:01;11.40;99.90
47961;DHT22;33721;48.852;9.936;2023-11-19T08:52:27;11.50;99.90
47961;DHT22;33721;48.852;9.936;2023-11-19T08:54:52;11.50;99.90
47961;DHT22;33721;48.852;9.936;2023-11-19T08:57:18;11.60;99.90
47961;DHT22;33721;48.852;9.936;2023-11-19T08:59:44;11.70;99.90
47961;DHT22;33721;48.852;9.936;2023-11-19T09:02:11;11.70;99.90
47961;DHT22;33721;48.852;9.936;2023-11-19T09:04:37;11.80;99.90
47961;DHT22;33721;48.852;9.936;2023-11-19T09:07:03;11.80;99.90
47961;DHT22;33721;48.852;9.936;2023-11-19T09:09:29;11.80;99.90
47961;DHT22;33721;48.852;9.936;2023-11-19T09:11:55;11.80;99.90
47961;DHT22;33721;48.852;9.936;2023-11-19T09:14:21;11.80;99.90
47961;DHT22;33721;48.852;9.936;2023-11-19T09:16:51;11.80;99.90
47961;DHT22;33721;48.852;9.936;2023-11-19T09:19:17;11.80;99.90
47961;DHT22;33721;48.852;9.936;2023-11-19T09:21:43;11.80;99.90
47961;DHT22;33721;48.852;9.936;2023-11-19T09:24:09;11.70;99.90
47961;DHT22;33721;48.852;9.936;2023-11-19T09:26:35;11.70;99.90
47961;DHT22;33721;48.852;9.936;2023-11-19T09:29:02;11.70;99.90
47961;DHT22;33721;48.852;9.936;2023-11-19T09:31:27;11.60;99.90
47961;DHT22;33721;48.852;9.936;2023-11-19T09:33:53;11.70;99.90
47961;DHT22;33721;48.852;9.936;2023-11-19T09:36:20;11.70;99.90
47961;DHT22;33721;48.852;9.936;2023-11-19T09:38:45;11.70;99.90
47961;DHT22;33721;48.852;9.936;2023-11-19T09:41:11;11.90;99.90
47961;DHT22;33721;48.852;9.936;2023-11-19T09:43:42;12.00;99.90
47961;DHT22;33721;48.852;9.936;2023-11-19T09:46:13;12.10;99.90
47961;DHT22;33721;48.852;9.936;2023-11-19T09:48:41;12.20;99.90
47961;DHT22;33721;48.852;9.936;2023-11-19T09:51:08;12.20;99.90
47961;DHT22;33721;48.852;9.936;2023-11-19T09:53:35;12.30;99.90
47961;DHT22;33721;48.852;9.936;2023-11-19T09:56:03;12.30;99.90
47961;DHT22;33721;48.852;9.936;2023-11-19T09:58:30;12.30;99.90
47961;DHT22;33721;48.852;9.936;2023-11-19T10:00:59;12.30;99.90
47961;DHT22;33721;48.852;9.936;2023-11-19T10:03:26;12.20;99.90
47961;DHT22;33721;48.852;9.936;2023-11-19T10:05:55;12.30;99.90
47961;DHT22;33721;48.852;9.936;2023-11-19T10:08:21;12.30;99.90
47961;DHT22;33721;48.852;9.936;2023-11-19T10:10:47;12.30;99.90
47961;DHT22;33721;48.852;9.936;2023-11-19T10:13:13;12.30;99.90
47961;DHT22;33721;48.852;9.936;2023-11-19T10:15:40;12.30;99.90
47961;DHT22;33721;48.852;9.936;2023-11-19T10:18:06;12.40;99.90
47961;DHT22;33721;48.852;9.936;2023-11-19T10:20:40;12.30;99.90
47961;DHT22;33721;48.852;9.936;2023-11-19T10:23:06;12.20;99.90
47961;DHT22;33721;48.852;9.936;2023-11-19T10:25:33;12.10;99.90
47961;DHT22;33721;48.852;9.936;2023-11-19T10:28:00;12.10;99.90
47961;DHT22;33721;48.852;9.936;2023-11-19T10:30:27;12.10;99.90
47961;DHT22;33721;48.852;9.936;2023-11-19T10:33:07;12.20;99.90
47961;DHT22;33721;48.852;9.936;2023-11-19T10:35:50;12.30;99.90
47961;DHT22;33721;48.852;9.936;2023-11-19T10:38:19;12.50;99.90
47961;DHT22;33721;48.852;9.936;2023-11-19T10:40:45;12.90;99.90
47961;DHT22;33721;48.852;9.936;2023-11-19T10:43:10;13.00;99.90
47961;DHT22;33721;48.852;9.936;2023-11-19T10:45:37;13.00;99.90
47961;DHT22;33721;48.852;9.936;2023-11-19T10:48:04;12.90;99.90
47961;DHT22;33721;48.852;9.936;2023-11-19T10:50:34;13.00;99.90
47961;DHT22;33721;48.852;9.936;2023-11-19T10:53:00;13.00;99.90
47961;DHT22;33721;48.852;9.936;2023-11-19T10:55:31;13.00;99.90
47961;DHT22;33721;48.852;9.936;2023-11-19T10:57:59;13.00;99.90
47961;DHT22;33721;48.852;9.936;2023-11-19T11:00:28;13.00;99.90
47961;DHT22;33721;48.852;9.936;2023-11-19T11:02:59;13.20;99.90
47961;DHT22;33721;48.852;9.936;2023-11-19T11:05:26;13.30;99.90
47961;DHT22;33721;48.852;9.936;2023-11-19T11:07:54;13.50;99.90
47961;DHT22;33721;48.852;9.936;2023-11-19T11:10:22;13.40;99.90
47961;DHT22;33721;48.852;9.936;2023-11-19T11:12:52;13.40;99.90
47961;DHT22;33721;48.852;9.936;2023-11-19T11:15:23;13.50;99.90
47961;DHT22;33721;48.852;9.936;2023-11-19T11:17:50;13.40;99.90
47961;DHT22;33721;48.852;9.936;2023-11-19T11:20:18;13.40;99.90
47961;DHT22;33721;48.852;9.936;2023-11-19T11:23:16;13.40;99.90
47961;DHT22;33721;48.852;9.936;2023-11-19T11:28:51;13.50;99.90
47961;DHT22;33721;48.852;9.936;2023-11-19T11:37:27;14.10;99.90
47961;DHT22;33721;48.852;9.936;2023-11-19T11:39:57;14.10;99.90
47961;DHT22;33721;48.852;9.936;2023-11-19T11:45:04;13.90;99.90
47961;DHT22;33721;48.852;9.936;2023-11-19T11:50:09;13.70;99.90
47961;DHT22;33721;48.852;9.936;2023-11-19T11:55:26;14.00;99.90
47961;DHT22;33721;48.852;9.936;2023-11-19T11:57:53;14.10;99.90
47961;DHT22;33721;48.852;9.936;2023-11-19T12:00:26;14.10;99.90
47961;DHT22;33721;48.852;9.936;2023-11-19T12:02:59;13.90;99.90
47961;DHT22;33721;48.852;9.936;2023-11-19T12:05:25;13.70;99.90
47961;DHT22;33721;48.852;9.936;2023-11-19T12:08:01;13.60;99.90
47961;DHT22;33721;48.852;9.936;2023-11-19T12:10:51;13.50;99.90
47961;DHT22;33721;48.852;9.936;2023-11-19T12:13:20;13.40;99.90
47961;DHT22;33721;48.852;9.936;2023-11-19T12:18:24;13.30;99.90
47961;DHT22;33721;48.852;9.936;2023-11-19T12:20:51;13.20;99.90
47961;DHT22;33721;48.852;9.936;2023-11-19T12:23:17;13.20;99.90
47961;DHT22;33721;48.852;9.936;2023-11-19T12:25:43;13.20;99.90
47961;DHT22;33721;48.852;9.936;2023-11-19T12:28:14;13.40;99.90
47961;DHT22;33721;48.852;9.936;2023-11-19T12:30:42;13.80;99.90
47961;DHT22;33721;48.852;9.936;2023-11-19T12:33:08;14.10;99.90
47961;DHT22;33721;48.852;9.936;2023-11-19T12:35:41;14.30;99.90
47961;DHT22;33721;48.852;9.936;2023-11-19T12:38:08;14.30;99.90
47961;DHT22;33721;48.852;9.936;2023-11-19T12:40:34;14.10;99.90
47961;DHT22;33721;48.852;9.936;2023-11-19T12:42:59;14.30;99.90
47961;DHT22;33721;48.852;9.936;2023-11-19T12:45:37;14.30;99.90
47961;DHT22;33721;48.852;9.936;2023-11-19T12:48:07;14.60;99.90
47961;DHT22;33721;48.852;9.936;2023-11-19T12:53:20;14.30;99.90
47961;DHT22;33721;48.852;9.936;2023-11-19T12:55:46;14.10;99.90
47961;DHT22;33721;48.852;9.936;2023-11-19T12:58:31;14.30;99.90
47961;DHT22;33721;48.852;9.936;2023-11-19T13:01:02;14.50;99.90
47961;DHT22;33721;48.852;9.936;2023-11-19T13:03:36;14.30;99.90
47961;DHT22;33721;48.852;9.936;2023-11-19T13:06:05;14.00;99.90
47961;DHT22;33721;48.852;9.936;2023-11-19T13:08:40;13.90;99.90
47961;DHT22;33721;48.852;9.936;2023-11-19T13:11:06;13.80;99.90
47961;DHT22;33721;48.852;9.936;2023-11-19T13:13:53;13.70;99.90
47961;DHT22;33721;48.852;9.936;2023-11-19T13:16:18;13.70;99.90
47961;DHT22;33721;48.852;9.936;2023-11-19T13:18:44;13.60;99.90
47961;DHT22;33721;48.852;9.936;2023-11-19T13:21:10;13.60;99.90
47961;DHT22;33721;48.852;9.936;2023-11-19T13:23:35;13.60;99.90
47961;DHT22;33721;48.852;9.936;2023-11-19T13:26:01;13.50;99.90
47961;DHT22;33721;48.852;9.936;2023-11-19T13:28:27;13.40;99.90
47961;DHT22;33721;48.852;9.936;2023-11-19T13:30:53;13.50;99.90
47961;DHT22;33721;48.852;9.936;2023-11-19T13:33:18;13.90;99.90
47961;DHT22;33721;48.852;9.936;2023-11-19T13:35:44;14.00;99.90
47961;DHT22;33721;48.852;9.936;2023-11-19T13:38:10;14.20;99.90
47961;DHT22;33721;48.852;9.936;2023-11-19T13:40:35;14.20;99.90
47961;DHT22;33721;48.852;9.936;2023-11-19T13:43:01;14.20;99.90
47961;DHT22;33721;48.852;9.936;2023-11-19T13:45:27;14.40;99.90
47961;DHT22;33721;48.852;9.936;2023-11-19T13:47:53;14.50;99.90
47961;DHT22;33721;48.852;9.936;2023-11-19T13:50:18;14.60;99.90
47961;DHT22;33721;48.852;9.936;2023-11-19T13:52:45;14.80;99.90
47961;DHT22;33721;48.852;9.936;2023-11-19T13:55:13;15.20;99.90
47961;DHT22;33721;48.852;9.936;2023-11-19T13:57:39;15.60;99.90
47961;DHT22;33721;48.852;9.936;2023-11-19T14:00:07;15.90;99.90
47961;DHT22;33721;48.852;9.936;2023-11-19T14:02:44;16.10;99.90
47961;DHT22;33721;48.852;9.936;2023-11-19T14:05:10;16.20;99.90
47961;DHT22;33721;48.852;9.936;2023-11-19T14:07:37;16.20;99.90
47961;DHT22;33721;48.852;9.936;2023-11-19T14:10:03;16.10;99.90
47961;DHT22;33721;48.852;9.936;2023-11-19T14:12:30;15.80;99.90
47961;DHT22;33721;48.852;9.936;2023-11-19T14:14:56;15.60;99.90
47961;DHT22;33721;48.852;9.936;2023-11-19T14:17:21;15.70;99.90
47961;DHT22;33721;48.852;9.936;2023-11-19T14:19:47;15.60;99.90
47961;DHT22;33721;48.852;9.936;2023-11-19T14:22:13;15.70;99.90
47961;DHT22;33721;48.852;9.936;2023-11-19T14:24:38;15.50;99.90
47961;DHT22;33721;48.852;9.936;2023-11-19T14:27:07;15.00;99.90
47961;DHT22;33721;48.852;9.936;2023-11-19T14:29:32;14.80;99.90
47961;DHT22;33721;48.852;9.936;2023-11-19T14:32:00;14.70;99.90
47961;DHT22;33721;48.852;9.936;2023-11-19T14:34:26;14.50;99.90
47961;DHT22;33721;48.852;9.936;2023-11-19T14:36:52;14.60;99.90
47961;DHT22;33721;48.852;9.936;2023-11-19T14:39:19;14.60;99.90
47961;DHT22;33721;48.852;9.936;2023-11-19T14:41:44;14.50;99.90
47961;DHT22;33721;48.852;9.936;2023-11-19T14:44:10;14.50;99.90
47961;DHT22;33721;48.852;9.936;2023-11-19T14:46:36;14.40;99.90
47961;DHT22;33721;48.852;9.936;2023-11-19T14:49:02;14.30;99.90
47961;DHT22;33721;48.852;9.936;2023-11-19T14:51:29;14.30;99.90
47961;DHT22;33721;48.852;9.936;2023-11-19T14:53:55;14.30;99.90
47961;DHT22;33721;48.852;9.936;2023-11-19T14:56:20;14.20;99.90
47961;DHT22;33721;48.852;9.936;2023-11-19T14:58:47;13.80;99.90
47961;DHT22;33721;48.852;9.936;2023-11-19T15:01:13;13.60;99.90
47961;DHT22;33721;48.852;9.936;2023-11-19T15:03:39;13.70;99.90
47961;DHT22;33721;48.852;9.936;2023-11-19T15:06:06;13.50;99.90
47961;DHT22;33721;48.852;9.936;2023-11-19T15:08:32;13.30;99.90
47961;DHT22;33721;48.852;9.936;2023-11-19T15:10:58;13.10;99.90
47961;DHT22;33721;48.852;9.936;2023-11-19T15:13:25;13.10;99.90
47961;DHT22;33721;48.852;9.936;2023-11-19T15:15:50;13.00;99.90
47961;DHT22;33721;48.852;9.936;2023-11-19T15:18:18;13.00;99.90
47961;DHT22;33721;48.852;9.936;2023-11-19T15:20:44;12.80;99.90
47961;DHT22;33721;48.852;9.936;2023-11-19T15:23:13;12.70;99.90
47961;DHT22;33721;48.852;9.936;2023-11-19T15:25:38;12.60;99.90
47961;DHT22;33721;48.852;9.936;2023-11-19T15:28:04;12.60;99.90
47961;DHT22;33721;48.852;9.936;2023-11-19T15:30:30;12.50;99.90
47961;DHT22;33721;48.852;9.936;2023-11-19T15:32:56;12.60;99.90
47961;DHT22;33721;48.852;9.936;2023-11-19T15:35:22;12.50;99.90
47961;DHT22;33721;48.852;9.936;2023-11-19T15:37:48;12.40;99.90
47961;DHT22;33721;48.852;9.936;2023-11-19T15:40:14;12.30;99.90
47961;DHT22;33721;48.852;9.936;2023-11-19T15:42:41;12.20;99.90
47961;DHT22;33721;48.852;9.936;2023-11-19T15:45:08;12.20;99.90
47961;DHT22;33721;48.852;9.936;2023-11-19T15:47:34;12.30;99.90
47961;DHT22;33721;48.852;9.936;2023-11-19T15:50:04;12.20;99.90
47961;DHT22;33721;48.852;9.936;2023-11-19T15:52:30;12.10;99.90
47961;DHT22;33721;48.852;9.936;2023-11-19T15:54:56;12.00;99.90
47961;DHT22;33721;48.852;9.936;2023-11-19T15:57:22;12.00;99.90
47961;DHT22;33721;48.852;9.936;2023-11-19T15:59:48;11.90;99.90